Time;durP1;ratioP1;P1;durP2;ratioP2;P2;SDS_P1;SDS_P2;PMS_P1;PMS_P2;Temp;Humidity;BMP_temperature;BMP_pressure;BME280_temperature;BME280_humidity;BME280_pressure;Samples;Min_cycle;Max_cycle;Signal;HPM_P1;HPM_P2
2022/12/15 00:41:26;;;;;;;9.80;3.17;;;;;;;-9.17;100.00;99972.06;6073828;28;20037;-66
2022/12/15 00:44:22;;;;;;;8.77;4.33;;;;;;;-9.24;100.00;99938.94;6072576;28;20037;-66
2022/12/15 00:47:17;;;;;;;11.80;5.95;;;;;;;-8.97;100.00;99961.25;6074123;28;20033;-66
2022/12/15 01:22:40;;;;;;;9.88;4.80;;;;;;;-9.07;100.00;99988.03;6072451;28;20029;-66
2022/12/15 01:25:38;;;;;;;17.25;6.55;;;;;;;-8.96;100.00;99991.16;6071992;28;20037;-66
2022/12/15 01:28:33;;;;;;;10.90;5.18;;;;;;;-8.92;100.00;100003.03;6072406;28;20091;-65
2022/12/15 01:31:28;;;;;;;16.20;4.97;;;;;;;-8.97;100.00;99994.63;6076060;28;20022;-66
2022/12/15 01:34:24;;;;;;;13.98;4.82;;;;;;;-9.03;100.00;99989.66;6071581;28;20036;-66
2022/12/15 01:37:19;;;;;;;10.53;3.87;;;;;;;-8.90;100.00;99987.56;6072160;28;20029;-65
2022/12/15 01:43:34;;;;;;;14.75;6.57;;;;;;;-8.88;100.00;99973.81;6071861;28;20474;-66
2022/12/15 01:46:29;;;;;;;16.17;5.18;;;;;;;-8.73;100.00;99995.66;6072008;28;20042;-66
2022/12/15 01:49:27;;;;;;;10.93;5.10;;;;;;;-8.83;100.00;99992.50;6054240;28;20046;-66
2022/12/15 01:52:22;;;;;;;13.00;5.47;;;;;;;-8.74;100.00;100017.91;6054036;28;20033;-67
2022/12/15 01:55:18;;;;;;;9.03;4.90;;;;;;;-8.74;100.00;100019.66;6080985;28;20394;-67
2022/12/15 01:58:15;;;;;;;10.15;3.55;;;;;;;-8.89;100.00;100013.22;6055109;28;20082;-66
2022/12/15 02:01:10;;;;;;;9.10;4.28;;;;;;;-9.03;100.00;100007.63;6054427;28;20026;-66
2022/12/15 02:04:06;;;;;;;12.70;4.88;;;;;;;-8.83;100.00;100010.47;6082613;28;20037;-67
2022/12/15 02:07:01;;;;;;;13.95;4.57;;;;;;;-8.84;100.00;100005.38;6055032;28;20080;-66
2022/12/15 02:09:59;;;;;;;11.17;4.17;;;;;;;-8.94;100.00;100004.78;6072098;28;20029;-66
2022/12/15 02:13:10;;;;;;;14.25;4.78;;;;;;;-9.05;100.00;99998.28;6054058;28;20421;-65
2022/12/15 02:16:14;;;;;;;12.07;5.80;;;;;;;-8.88;100.00;99988.38;6054163;28;20034;-66
2022/12/15 02:19:31;;;;;;;13.30;4.20;;;;;;;-8.72;100.00;100005.88;6071901;28;20045;-66
2022/12/15 02:22:45;;;;;;;16.65;6.18;;;;;;;-8.76;100.00;99998.31;6075760;28;20071;-66
2022/12/15 02:25:58;;;;;;;14.70;4.82;;;;;;;-8.68;100.00;100017.75;6058514;28;20045;-65
2022/12/15 02:29:07;;;;;;;15.07;4.15;;;;;;;-8.58;100.00;100019.16;6080762;28;20106;-66
2022/12/15 02:32:09;;;;;;;11.07;5.28;;;;;;;-8.44;100.00;100028.19;6084967;28;20041;-66
2022/12/15 02:35:13;;;;;;;15.32;5.75;;;;;;;-8.47;100.00;100006.00;6065878;28;20052;-66
2022/12/15 02:38:09;;;;;;;14.52;7.55;;;;;;;-8.36;100.00;100023.66;6058589;28;20397;-66
2022/12/15 02:41:05;;;;;;;14.70;5.43;;;;;;;-8.37;100.00;100004.88;6076246;28;20047;-67
2022/12/15 02:44:08;;;;;;;27.05;5.88;;;;;;;-8.33;100.00;100028.72;6078619;28;20049;-67
2022/12/15 02:47:22;;;;;;;18.13;6.00;;;;;;;-8.49;100.00;100039.47;6064975;28;20040;-67
2022/12/15 02:50:31;;;;;;;10.23;4.43;;;;;;;-8.31;100.00;100045.78;6076402;28;20041;-66
2022/12/15 02:53:35;;;;;;;13.43;5.55;;;;;;;-8.39;100.00;100052.88;6074756;28;20546;-66
2022/12/15 02:56:49;;;;;;;16.52;6.05;;;;;;;-8.42;100.00;100029.81;6078397;28;20033;-66
2022/12/15 02:59:56;;;;;;;13.00;6.43;;;;;;;-8.37;100.00;100040.84;6058040;28;20033;-66
2022/12/15 03:02:53;;;;;;;15.48;5.47;;;;;;;-8.69;100.00;100025.50;6061439;28;20064;-66
2022/12/15 03:05:53;;;;;;;11.95;4.32;;;;;;;-8.63;100.00;100040.72;6065062;28;20121;-66
2022/12/15 03:08:49;;;;;;;12.70;6.18;;;;;;;-8.75;100.00;100038.53;6076026;28;20043;-66
2022/12/15 03:11:44;;;;;;;9.53;5.27;;;;;;;-8.75;100.00;100041.91;6085241;28;20045;-66
2022/12/15 03:14:39;;;;;;;11.87;4.73;;;;;;;-8.66;100.00;100051.94;6073655;28;20041;-66
2022/12/15 03:17:35;;;;;;;19.30;5.63;;;;;;;-8.54;100.00;100043.91;6079547;28;20037;-66
2022/12/15 03:20:30;;;;;;;17.07;5.50;;;;;;;-8.42;100.00;100044.44;6088316;28;20096;-66
2022/12/15 03:23:25;;;;;;;9.43;3.90;;;;;;;-8.41;100.00;100043.53;6074835;28;20033;-66
2022/12/15 03:26:21;;;;;;;17.47;6.30;;;;;;;-8.31;100.00;100052.63;6074621;28;20398;-67
2022/12/15 03:29:16;;;;;;;21.23;5.73;;;;;;;-8.36;100.00;100055.34;6074683;28;20040;-66
2022/12/15 03:32:12;;;;;;;14.80;6.53;;;;;;;-8.33;100.00;100051.84;6076644;28;20120;-66
2022/12/15 03:35:07;;;;;;;13.95;5.57;;;;;;;-8.40;100.00;100051.22;6074316;28;20583;-65
2022/12/15 03:38:03;;;;;;;10.27;4.72;;;;;;;-8.13;100.00;100072.66;6075137;28;20029;-66
2022/12/15 03:40:58;;;;;;;14.87;4.90;;;;;;;-8.24;100.00;100051.56;6074220;28;20490;-66
2022/12/15 03:43:53;;;;;;;20.80;6.13;;;;;;;-8.24;100.00;100079.84;6084520;28;20029;-66
2022/12/15 03:46:49;;;;;;;17.50;5.77;;;;;;;-8.28;100.00;100078.25;6081770;28;20029;-66
2022/12/15 03:49:44;;;;;;;17.10;6.03;;;;;;;-8.30;100.00;100075.75;6095359;28;20033;-66
2022/12/15 03:52:39;;;;;;;15.20;5.63;;;;;;;-8.33;100.00;100085.25;6095941;28;20033;-66
2022/12/15 03:55:35;;;;;;;13.43;4.70;;;;;;;-8.43;100.00;100071.00;6098722;28;20424;-66
2022/12/15 03:58:30;;;;;;;11.30;4.75;;;;;;;-8.42;100.00;100081.22;6076164;28;20280;-66
2022/12/15 04:01:27;;;;;;;16.73;8.10;;;;;;;-8.33;100.00;100090.41;6074481;28;20382;-66
2022/12/15 04:04:22;;;;;;;11.18;4.93;;;;;;;-8.31;100.00;100093.75;6091775;28;20028;-66
2022/12/15 04:07:17;;;;;;;14.40;4.27;;;;;;;-8.18;100.00;100071.94;6098398;28;20021;-66
2022/12/15 04:10:13;;;;;;;14.03;4.33;;;;;;;-7.86;100.00;100085.53;6098418;28;20028;-66
2022/12/15 04:13:10;;;;;;;10.88;5.80;;;;;;;-7.62;100.00;100075.34;6081172;28;20514;-66
2022/12/15 04:16:05;;;;;;;10.45;5.07;;;;;;;-7.33;100.00;100091.53;6074126;28;20029;-66
2022/12/15 04:22:14;;;;;;;14.55;4.57;;;;;;;-7.16;100.00;100090.97;6081347;28;20125;-66
2022/12/15 05:33:07;;;;;;;14.80;5.70;;;;;;;-6.63;97.96;100117.47;6096477;28;20104;-67
2022/12/15 05:36:02;;;;;;;12.55;5.25;;;;;;;-6.50;97.84;100112.75;6078727;28;20045;-66
2022/12/15 05:38:58;;;;;;;15.88;5.00;;;;;;;-6.54;97.31;100103.41;6097089;28;20048;-66
2022/12/15 05:41:55;;;;;;;16.47;5.20;;;;;;;-6.53;97.49;100121.41;6096078;28;20073;-66
2022/12/15 05:44:50;;;;;;;14.02;5.85;;;;;;;-6.56;97.42;100126.69;6095899;28;20520;-66
2022/12/15 05:47:50;;;;;;;16.37;5.77;;;;;;;-6.53;97.82;100134.31;6096708;28;20060;-65
2022/12/15 05:50:46;;;;;;;8.57;3.85;;;;;;;-6.49;97.77;100125.56;6096724;28;20021;-67
2022/12/15 05:53:41;;;;;;;8.15;4.32;;;;;;;-6.54;97.40;100130.03;6095477;28;20048;-66
2022/12/15 05:56:37;;;;;;;16.95;5.88;;;;;;;-6.48;97.66;100141.88;6100283;28;20166;-66
2022/12/15 05:59:32;;;;;;;16.20;5.47;;;;;;;-6.57;97.83;100140.44;6101021;28;20040;-66
2022/12/15 06:02:28;;;;;;;15.47;5.60;;;;;;;-6.49;97.77;100137.59;6100684;28;20104;-67
2022/12/15 06:05:23;;;;;;;20.85;6.07;;;;;;;-6.48;97.58;100139.28;6100894;28;20094;-66
2022/12/15 06:08:18;;;;;;;19.33;5.53;;;;;;;-6.50;97.45;100143.66;6101082;28;20033;-66
2022/12/15 06:11:15;;;;;;;12.63;5.30;;;;;;;-6.43;97.83;100145.97;6101041;28;20025;-66
2022/12/15 06:14:11;;;;;;;14.30;5.55;;;;;;;-6.26;97.93;100147.97;6099970;28;20410;-67
2022/12/15 06:17:06;;;;;;;13.23;5.63;;;;;;;-6.21;97.09;100151.22;6100752;28;20040;-66
2022/12/15 06:20:01;;;;;;;11.67;5.40;;;;;;;-6.50;97.10;100112.75;6100622;28;20461;-65
2022/12/15 06:22:57;;;;;;;12.53;4.83;;;;;;;-6.28;96.85;100152.34;6081977;28;20074;-66
2022/12/15 06:25:52;;;;;;;12.17;6.10;;;;;;;-6.17;96.90;100165.69;6100311;28;20486;-65
2022/12/15 06:28:49;;;;;;;16.23;5.38;;;;;;;-6.22;96.74;100171.00;6100680;28;20025;-66
2022/12/15 06:31:44;;;;;;;17.42;5.50;;;;;;;-6.26;96.62;100166.84;6100119;28;20402;-65
2022/12/15 06:34:40;;;;;;;12.75;5.10;;;;;;;-6.25;96.74;100178.84;6099667;28;20025;-66
2022/12/15 06:37:35;;;;;;;15.73;5.13;;;;;;;-6.32;96.72;100179.97;6082673;28;20040;-65
2022/12/15 06:40:30;;;;;;;12.13;5.73;;;;;;;-6.37;96.65;100181.00;6096952;28;20040;-66
2022/12/15 06:43:27;;;;;;;17.27;6.10;;;;;;;-6.46;96.98;100182.16;6097460;28;20386;-67
2022/12/15 06:46:23;;;;;;;8.65;4.15;;;;;;;-6.56;96.77;100192.84;6098958;28;20057;-68
2022/12/15 06:49:19;;;;;;;12.52;4.65;;;;;;;-6.67;97.19;100198.38;6099795;28;20063;-66
2022/12/15 06:52:14;;;;;;;9.47;3.73;;;;;;;-6.76;97.67;100190.94;6099186;28;20041;-66
2022/12/15 06:55:09;;;;;;;12.55;5.13;;;;;;;-6.72;98.38;100198.53;6099172;28;20036;-66
2022/12/15 06:58:05;;;;;;;16.10;5.13;;;;;;;-6.80;98.04;100202.25;6099199;28;20036;-66
2022/12/15 07:01:06;;;;;;;16.35;5.60;;;;;;;-6.86;98.14;100202.47;6099083;28;20037;-67
2022/12/15 07:04:04;;;;;;;18.23;5.75;;;;;;;-6.90;98.31;100201.69;6079994;28;20036;-67
2022/12/15 07:06:59;;;;;;;13.65;5.32;;;;;;;-6.83;98.61;100213.50;6099347;28;20120;-66
2022/12/15 07:09:54;;;;;;;26.93;4.70;;;;;;;-6.81;98.41;100216.03;6099320;28;20045;-66
2022/12/15 07:12:50;;;;;;;10.30;4.40;;;;;;;-6.90;98.93;100213.78;6081188;28;20025;-66
2022/12/15 07:15:47;;;;;;;10.77;5.00;;;;;;;-6.96;99.14;100211.38;6099488;28;20440;-66
2022/12/15 07:18:43;;;;;;;14.57;6.10;;;;;;;-7.01;99.05;100215.84;6099293;28;20505;-67
2022/12/15 07:21:39;;;;;;;11.15;4.50;;;;;;;-6.84;99.13;100229.00;6099224;28;20048;-67
2022/12/15 07:24:35;;;;;;;17.23;5.32;;;;;;;-6.93;98.83;100222.41;6098629;28;20040;-67
2022/12/15 07:27:30;;;;;;;12.37;4.90;;;;;;;-6.95;98.82;100223.34;6099385;28;20061;-67
2022/12/15 07:30:26;;;;;;;12.37;5.77;;;;;;;-6.88;98.98;100224.84;6099234;28;20496;-66
2022/12/15 07:33:21;;;;;;;15.80;5.47;;;;;;;-6.81;99.45;100237.50;6097308;28;20036;-67
2022/12/15 07:36:17;;;;;;;11.93;4.90;;;;;;;-6.72;99.27;100251.81;6097405;28;20118;-66
2022/12/15 07:39:12;;;;;;;12.05;4.10;;;;;;;-6.58;99.20;100254.78;6098924;28;20470;-66
2022/12/15 07:42:07;;;;;;;11.60;4.20;;;;;;;-6.51;99.14;100256.25;6098538;28;20111;-66
2022/12/15 07:45:04;;;;;;;12.40;5.03;;;;;;;-6.43;98.73;100259.41;6098812;28;20025;-66
2022/12/15 07:47:59;;;;;;;19.33;5.78;;;;;;;-6.45;98.93;100256.06;6098791;28;20319;-67
2022/12/15 07:50:58;;;;;;;10.87;5.30;;;;;;;-6.25;98.46;100263.13;6098941;28;20148;-68
2022/12/15 07:53:53;;;;;;;17.80;4.70;;;;;;;-6.19;98.76;100252.56;6098063;28;20029;-67
2022/12/15 07:56:49;;;;;;;18.00;7.28;;;;;;;-5.99;98.80;100272.53;6098871;28;20508;-66
2022/12/15 07:59:44;;;;;;;10.17;4.63;;;;;;;-5.88;98.40;100275.59;6098234;28;20031;-66
2022/12/15 08:02:41;;;;;;;15.65;6.70;;;;;;;-5.80;98.70;100278.69;6098210;28;20085;-67
2022/12/15 08:05:36;;;;;;;15.18;5.85;;;;;;;-5.67;98.64;100292.84;6098787;28;20422;-67
2022/12/15 08:08:32;;;;;;;15.80;6.67;;;;;;;-5.65;99.01;100285.88;6098211;28;20025;-67
2022/12/15 08:11:27;;;;;;;17.52;5.45;;;;;;;-5.63;99.00;100284.97;6098397;28;20112;-68
2022/12/15 08:14:23;;;;;;;14.10;5.75;;;;;;;-5.50;98.86;100298.25;6097298;28;20076;-67
2022/12/15 08:17:19;;;;;;;14.80;5.55;;;;;;;-5.53;99.13;100295.78;6097863;28;20029;-67
2022/12/15 08:20:14;;;;;;;20.52;6.78;;;;;;;-5.42;99.02;100314.31;6098313;28;20040;-67
2022/12/15 08:23:09;;;;;;;16.73;6.43;;;;;;;-5.38;99.50;100304.72;6097310;28;20025;-67
2022/12/15 08:26:13;;;;;;;18.87;6.13;;;;;;;-5.30;99.47;100298.38;6097886;28;20782;-67
2022/12/15 08:29:12;;;;;;;11.65;4.90;;;;;;;-5.06;99.73;100306.94;6097783;28;20041;-67
2022/12/15 08:32:08;;;;;;;16.02;6.07;;;;;;;-4.77;100.00;100306.63;6097044;28;20033;-68
2022/12/15 08:35:03;;;;;;;16.17;6.47;;;;;;;-4.65;99.39;100292.38;6097873;28;20107;-67
2022/12/15 08:38:00;;;;;;;15.30;6.45;;;;;;;-4.45;99.76;100293.25;6097824;28;20029;-67
2022/12/15 08:40:55;;;;;;;16.88;6.22;;;;;;;-4.28;99.69;100300.31;6097806;28;20033;-68
2022/12/15 08:43:51;;;;;;;21.13;7.63;;;;;;;-4.07;99.52;100302.00;6096869;28;20049;-68
2022/12/15 08:46:47;;;;;;;14.85;6.57;;;;;;;-4.06;99.16;100288.19;6097819;28;20029;-69
2022/12/15 08:49:42;;;;;;;18.27;6.77;;;;;;;-3.82;98.79;100297.47;6097124;28;20020;-70
2022/12/15 08:52:40;;;;;;;18.23;6.83;;;;;;;-3.81;98.40;100291.41;6079244;28;20037;-69
2022/12/15 08:55:35;;;;;;;17.85;7.38;;;;;;;-3.61;98.18;100306.06;6097432;28;20310;-70
2022/12/15 08:58:31;;;;;;;16.30;6.70;;;;;;;-3.61;98.26;100298.28;6097117;28;20028;-71
2022/12/15 09:01:28;;;;;;;16.80;6.47;;;;;;;-3.47;97.86;100297.66;6097582;28;20032;-71
2022/12/15 09:04:23;;;;;;;16.00;6.40;;;;;;;-3.30;97.48;100302.94;6096267;28;20043;-72
2022/12/15 09:07:19;;;;;;;14.10;6.03;;;;;;;-3.27;97.70;100300.22;6097490;28;20033;-72
2022/12/15 09:10:14;;;;;;;24.40;6.97;;;;;;;-3.07;96.81;100311.34;6097338;28;20029;-71
2022/12/15 09:13:09;;;;;;;15.30;6.77;;;;;;;-3.10;96.00;100300.31;6078763;28;20116;-73
2022/12/15 09:16:11;;;;;;;16.77;6.73;;;;;;;-2.99;96.40;100303.25;6097478;28;20270;-72
2022/12/15 09:19:08;;;;;;;16.35;6.70;;;;;;;-2.92;95.83;100296.84;6097179;28;20045;-74
2022/12/15 09:22:06;;;;;;;12.90;6.88;;;;;;;-2.71;95.81;100310.53;6096595;28;20066;-72
2022/12/15 09:25:04;;;;;;;20.00;7.35;;;;;;;-2.66;94.63;100312.00;6096900;28;20458;-72
2022/12/15 09:28:00;;;;;;;22.60;7.05;;;;;;;-2.60;93.61;100306.53;6097319;28;20111;-73
2022/12/15 09:31:21;;;;;;;18.43;6.10;;;;;;;-2.61;93.06;100307.44;6100135;28;20078;-73
2022/12/15 09:34:17;;;;;;;16.65;5.82;;;;;;;-2.41;92.56;100317.72;6101578;28;20025;-72
2022/12/15 09:37:12;;;;;;;17.23;6.57;;;;;;;-2.27;91.06;100318.78;6101616;28;20067;-72
2022/12/15 09:40:10;;;;;;;15.47;5.90;;;;;;;-2.31;90.13;100309.47;6101870;28;20098;-71
2022/12/15 09:43:11;;;;;;;21.08;6.43;;;;;;;-2.14;89.66;100312.91;6083807;28;20486;-71
2022/12/15 09:46:16;;;;;;;14.50;5.80;;;;;;;-1.95;88.70;100307.63;6083961;28;20028;-71
2022/12/15 09:49:23;;;;;;;15.68;5.90;;;;;;;-1.90;88.26;100308.25;6084433;28;20067;-70
2022/12/15 09:52:24;;;;;;;18.70;6.75;;;;;;;-1.70;86.54;100308.06;6093801;28;20098;-71
2022/12/15 09:55:22;;;;;;;13.90;5.47;;;;;;;-1.75;85.82;100312.66;6097756;28;20056;-71
2022/12/15 09:58:41;;;;;;;19.70;6.65;;;;;;;-1.78;85.51;100325.81;6098267;28;20033;-71
2022/12/15 10:02:00;;;;;;;15.60;6.38;;;;;;;-1.61;85.79;100337.94;6080867;28;20116;-72
2022/12/15 10:05:11;;;;;;;15.38;6.47;;;;;;;-1.64;85.44;100318.16;6097893;28;20467;-72
2022/12/15 10:08:08;;;;;;;15.68;6.00;;;;;;;-1.35;85.00;100335.69;6080224;28;20132;-73
2022/12/15 10:11:16;;;;;;;16.65;6.90;;;;;;;-1.41;84.28;100328.19;6098050;28;20037;-72
2022/12/15 10:14:20;;;;;;;15.18;6.65;;;;;;;-1.42;84.33;100339.53;6099510;28;20039;-73
2022/12/15 10:17:35;;;;;;;16.25;6.00;;;;;;;-1.33;84.63;100338.19;6081074;28;20107;-72
2022/12/15 10:20:31;;;;;;;25.40;7.28;;;;;;;-1.36;84.77;100335.78;6057243;28;20036;-73
2022/12/15 10:23:26;;;;;;;17.70;6.47;;;;;;;-1.30;84.80;100327.63;6076154;28;20029;-72
2022/12/15 10:26:25;;;;;;;19.07;6.23;;;;;;;-1.13;84.69;100334.53;6077087;28;20032;-73
2022/12/15 10:29:41;;;;;;;17.50;7.03;;;;;;;-1.34;84.44;100295.75;6059393;28;20264;-73
2022/12/15 10:32:49;;;;;;;16.05;5.95;;;;;;;-1.02;85.04;100334.81;6076227;28;20033;-72
2022/12/15 10:35:45;;;;;;;16.48;6.70;;;;;;;-0.96;84.33;100321.47;6076882;28;20033;-73
2022/12/15 10:38:44;;;;;;;22.55;7.47;;;;;;;-0.81;84.43;100326.66;6076454;28;20036;-74
2022/12/15 10:41:39;;;;;;;21.63;6.68;;;;;;;-0.61;84.84;100344.66;6076199;28;20108;-73
2022/12/15 10:44:37;;;;;;;16.33;6.90;;;;;;;-0.31;82.72;100344.69;6075912;28;20433;-74
2022/12/15 10:47:32;;;;;;;18.50;6.93;;;;;;;-0.51;82.68;100337.16;6076764;28;20295;-73
2022/12/15 10:50:27;;;;;;;12.20;5.60;;;;;;;-0.47;81.54;100346.47;6076143;28;20430;-71
2022/12/15 10:53:38;;;;;;;16.17;6.55;;;;;;;-0.46;82.84;100352.53;6075842;28;20466;-72
2022/12/15 10:56:33;;;;;;;25.15;6.72;;;;;;;-0.35;82.60;100340.56;6056104;28;20037;-72
2022/12/15 10:59:37;;;;;;;15.55;5.55;;;;;;;-0.19;81.76;100341.38;6074927;28;20042;-72
2022/12/15 11:02:32;;;;;;;12.95;6.82;;;;;;;-0.01;81.76;100361.19;6057514;28;20412;-73
2022/12/15 11:05:28;;;;;;;17.27;6.70;;;;;;;-0.12;80.55;100353.16;6075353;28;20094;-74
2022/12/15 11:08:23;;;;;;;16.37;6.27;;;;;;;-0.22;81.29;100354.56;6075262;28;20034;-74
2022/12/15 11:14:45;;;;;;;19.63;6.65;;;;;;;-0.66;83.23;100325.00;6075544;28;20120;-72
2022/12/15 11:17:40;;;;;;;20.10;6.50;;;;;;;-0.52;84.64;100327.69;6077689;28;20034;-74
2022/12/15 11:20:43;;;;;;;19.60;6.70;;;;;;;-0.63;85.18;100356.91;6100165;28;20044;-73
2022/12/15 11:23:51;;;;;;;18.38;7.13;;;;;;;-0.80;84.40;100350.94;6080999;28;20037;-72
2022/12/15 11:26:52;;;;;;;20.50;6.70;;;;;;;-0.95;85.06;100344.78;6099850;28;20060;-74
2022/12/15 11:30:13;;;;;;;16.65;6.95;;;;;;;-0.99;86.25;100352.84;6099657;28;20045;-74
2022/12/15 11:33:09;;;;;;;14.20;6.40;;;;;;;-1.00;86.95;100349.41;6093870;28;20076;-72
2022/12/15 11:36:18;;;;;;;16.20;6.65;;;;;;;-1.05;87.31;100363.56;6081500;28;20123;-71
2022/12/15 11:39:24;;;;;;;14.05;5.93;;;;;;;-1.08;87.56;100358.53;6099114;28;20047;-72
2022/12/15 11:42:28;;;;;;;16.23;6.72;;;;;;;-0.96;86.64;100348.34;6081044;28;20048;-73
2022/12/15 11:45:41;;;;;;;13.48;6.45;;;;;;;-1.02;87.29;100361.66;6081711;28;20021;-73
2022/12/15 11:48:47;;;;;;;16.27;6.53;;;;;;;-1.04;87.44;100360.06;6081626;28;20029;-73
2022/12/15 11:51:58;;;;;;;18.65;6.60;;;;;;;-0.90;88.42;100355.81;6081152;28;20068;-72
2022/12/15 11:54:54;;;;;;;14.52;4.97;;;;;;;-0.97;87.38;100345.78;6101216;28;20037;-73
2022/12/15 11:58:05;;;;;;;16.75;7.28;;;;;;;-1.00;87.30;100356.38;6081195;28;20055;-73
2022/12/15 12:01:27;;;;;;;14.23;6.13;;;;;;;-1.02;87.33;100361.66;6099066;28;20041;-73
2022/12/15 12:04:58;;;;;;;12.85;5.25;;;;;;;-0.96;87.62;100347.50;6098482;28;20139;-73
2022/12/15 12:08:14;;;;;;;14.63;6.47;;;;;;;-0.95;87.35;100356.97;6097951;28;20068;-73
2022/12/15 12:11:12;;;;;;;15.85;6.60;;;;;;;-0.90;87.61;100352.38;6098615;28;20043;-72
2022/12/15 12:14:36;;;;;;;13.57;5.95;;;;;;;-0.73;87.52;100349.66;6080089;28;20449;-73
2022/12/15 12:17:45;;;;;;;18.95;6.57;;;;;;;-0.82;87.25;100332.81;6098204;28;20025;-73
2022/12/15 12:21:01;;;;;;;14.93;5.53;;;;;;;-0.78;87.72;100341.28;6080548;28;20029;-74
2022/12/15 12:24:00;;;;;;;14.52;5.85;;;;;;;-0.71;87.80;100337.44;6097816;28;20040;-73
2022/12/15 12:26:58;;;;;;;14.48;5.15;;;;;;;-0.71;87.53;100340.03;6080123;28;20029;-73
2022/12/15 12:30:02;;;;;;;15.25;6.72;;;;;;;-0.70;87.59;100334.72;6079965;28;20400;-72
2022/12/15 12:33:01;;;;;;;15.70;5.82;;;;;;;-0.69;87.49;100341.63;6078262;28;20116;-72
2022/12/15 12:36:00;;;;;;;19.15;7.15;;;;;;;-0.75;87.40;100331.53;6098319;28;20025;-72
2022/12/15 12:38:56;;;;;;;16.63;6.35;;;;;;;-0.66;86.91;100340.63;6080195;28;20029;-72
2022/12/15 12:42:14;;;;;;;14.52;6.07;;;;;;;-0.67;86.99;100344.13;6097497;28;20029;-73
2022/12/15 12:45:11;;;;;;;18.63;7.03;;;;;;;-0.73;88.01;100344.47;6078736;28;20044;-71
2022/12/15 12:48:13;;;;;;;16.38;6.38;;;;;;;-0.70;88.20;100345.13;6079814;28;20028;-72
2022/12/15 12:51:12;;;;;;;18.05;7.03;;;;;;;-0.73;87.82;100350.50;6097651;28;20107;-74
2022/12/15 12:54:35;;;;;;;17.33;6.55;;;;;;;-0.60;88.03;100355.91;6095296;28;20111;-72
2022/12/15 12:57:39;;;;;;;11.25;4.50;;;;;;;-0.52;88.74;100350.25;6096231;28;20063;-75
2022/12/15 13:00:34;;;;;;;22.00;7.57;;;;;;;-0.66;87.97;100340.63;6096515;28;20060;-73
2022/12/15 13:03:29;;;;;;;17.20;6.82;;;;;;;-0.60;87.21;100340.28;6096823;28;20466;-74
2022/12/15 13:06:34;;;;;;;15.93;6.10;;;;;;;-0.61;87.77;100349.00;6079681;28;20033;-72
2022/12/15 13:09:39;;;;;;;16.42;6.10;;;;;;;-0.64;87.56;100347.41;6097732;28;20509;-73
2022/12/15 13:12:51;;;;;;;16.90;6.90;;;;;;;-0.59;86.72;100349.75;6096746;28;20107;-72
2022/12/15 13:15:59;;;;;;;17.63;5.70;;;;;;;-0.69;87.13;100340.78;6079681;28;20029;-75
2022/12/15 13:18:56;;;;;;;14.45;5.95;;;;;;;-0.59;87.14;100344.53;6097207;28;20047;-72
2022/12/15 13:21:52;;;;;;;14.75;6.13;;;;;;;-0.71;86.89;100332.22;6096822;28;20079;-73
2022/12/15 13:24:50;;;;;;;19.38;6.97;;;;;;;-0.69;87.87;100341.63;6097307;28;20433;-72
2022/12/15 13:27:50;;;;;;;14.63;5.85;;;;;;;-0.77;87.96;100338.59;6097434;28;20555;-73
2022/12/15 13:31:10;;;;;;;14.80;6.35;;;;;;;-0.74;87.32;100340.19;6079546;28;20029;-74
2022/12/15 13:34:14;;;;;;;18.95;6.65;;;;;;;-0.76;87.82;100329.03;6096307;28;20024;-72
2022/12/15 13:37:51;;;;;;;10.68;3.92;;;;;;;-0.72;86.78;100336.59;6097014;28;20051;-72
2022/12/15 13:40:46;;;;;;;17.52;6.40;;;;;;;-0.78;87.23;100342.13;6097291;28;20033;-72
2022/12/15 13:43:45;;;;;;;15.20;6.43;;;;;;;-0.83;86.90;100338.94;6096247;28;20055;-72
2022/12/15 13:46:43;;;;;;;15.05;5.85;;;;;;;-0.98;87.59;100328.53;6079233;28;20140;-71
2022/12/15 13:50:00;;;;;;;15.48;6.00;;;;;;;-1.04;87.48;100314.09;6078727;28;20116;-73
2022/12/15 13:52:56;;;;;;;13.73;4.68;;;;;;;-0.84;87.70;100341.59;6078815;28;20108;-72
2022/12/15 13:55:58;;;;;;;17.05;6.30;;;;;;;-0.93;87.64;100348.16;6079089;28;20044;-72
2022/12/15 13:58:58;;;;;;;17.23;5.82;;;;;;;-0.91;87.47;100350.69;6079492;28;20033;-74
2022/12/15 14:01:53;;;;;;;11.98;5.93;;;;;;;-1.02;87.52;100343.44;6078566;28;20037;-72
2022/12/15 14:05:11;;;;;;;19.93;5.93;;;;;;;-1.05;87.94;100358.38;6096390;28;20033;-74
2022/12/15 14:08:13;;;;;;;10.88;5.60;;;;;;;-1.03;88.59;100348.75;6096898;28;20059;-75
2022/12/15 14:11:20;;;;;;;14.02;5.95;;;;;;;-1.09;89.06;100357.72;6096713;28;20025;-73
2022/12/15 14:14:27;;;;;;;14.55;6.70;;;;;;;-1.16;88.82;100345.09;6078550;28;20035;-74
2022/12/15 14:17:22;;;;;;;16.13;6.45;;;;;;;-1.17;88.83;100348.63;6100047;28;20029;-73
2022/12/15 14:20:22;;;;;;;15.93;5.87;;;;;;;-1.23;88.01;100344.59;6083479;28;20049;-72
2022/12/15 14:23:23;;;;;;;16.10;5.15;;;;;;;-1.22;88.82;100347.09;6100169;28;20033;-74
2022/12/15 14:26:26;;;;;;;15.45;5.82;;;;;;;-1.45;88.45;100338.84;6101160;28;20036;-73
2022/12/15 14:29:22;;;;;;;13.43;5.53;;;;;;;-1.47;89.33;100338.91;6100976;28;20029;-74
2022/12/15 14:32:18;;;;;;;15.52;6.30;;;;;;;-1.46;88.80;100337.16;6100531;28;20040;-74
2022/12/15 14:35:20;;;;;;;16.77;7.67;;;;;;;-1.73;89.42;100321.22;6101418;28;20072;-72
2022/12/15 14:38:32;;;;;;;19.42;6.22;;;;;;;-1.80;90.18;100343.25;6082739;28;20263;-74
2022/12/15 14:41:29;;;;;;;21.20;6.68;;;;;;;-1.98;91.10;100328.56;6083004;28;20028;-74
2022/12/15 14:44:30;;;;;;;15.15;6.55;;;;;;;-1.92;91.60;100338.66;6099976;28;20428;-73
2022/12/15 14:47:28;;;;;;;17.98;6.25;;;;;;;-2.05;91.46;100330.66;6100738;28;20033;-74
2022/12/15 14:50:24;;;;;;;34.53;6.70;;;;;;;-2.23;91.70;100325.53;6100367;28;20584;-74
2022/12/15 14:53:20;;;;;;;12.98;5.32;;;;;;;-2.30;92.23;100343.16;6100056;28;20061;-73
2022/12/15 14:56:24;;;;;;;13.10;5.53;;;;;;;-2.51;92.92;100326.88;6065692;28;20082;-73
2022/12/15 14:59:19;;;;;;;18.33;5.80;;;;;;;-2.46;93.65;100335.25;6100497;28;20075;-74
2022/12/15 15:02:23;;;;;;;15.35;5.63;;;;;;;-2.72;94.00;100343.47;6081811;28;20036;-73
2022/12/15 15:05:26;;;;;;;12.45;5.38;;;;;;;-2.94;94.48;100339.31;6100187;28;20037;-72
2022/12/15 15:08:28;;;;;;;16.95;6.15;;;;;;;-2.98;95.34;100338.63;6100205;28;20539;-71
2022/12/15 15:11:30;;;;;;;14.27;6.22;;;;;;;-3.09;96.24;100333.94;6089026;28;20039;-70
2022/12/15 15:14:27;;;;;;;17.25;6.78;;;;;;;-2.88;96.93;100337.28;6104319;28;20051;-72
2022/12/15 15:17:26;;;;;;;19.35;7.35;;;;;;;-2.91;96.87;100340.03;6099799;28;20474;-72
2022/12/15 15:20:27;;;;;;;22.55;6.90;;;;;;;-3.02;97.40;100342.28;6082257;28;20041;-71
2022/12/15 15:23:22;;;;;;;20.50;7.57;;;;;;;-3.19;97.67;100334.41;6064578;28;20052;-72
2022/12/15 15:26:17;;;;;;;19.53;7.37;;;;;;;-3.31;97.46;100329.75;6099929;28;20457;-70
2022/12/15 15:29:51;;;;;;;17.53;6.87;;;;;;;-3.54;97.79;100351.53;6081758;28;20121;-72
2022/12/15 15:32:57;;;;;;;17.73;6.20;;;;;;;-3.61;98.78;100344.91;5954917;29;20040;-70
2022/12/15 15:35:58;;;;;;;19.35;6.60;;;;;;;-3.63;99.80;100331.19;5977434;29;20703;-72
2022/12/15 15:38:53;;;;;;;17.73;6.47;;;;;;;-3.68;99.35;100340.91;6097722;28;20091;-71
2022/12/15 15:41:49;;;;;;;13.47;5.30;;;;;;;-3.71;99.97;100328.94;6096219;28;20033;-72
2022/12/15 15:44:44;;;;;;;14.00;5.60;;;;;;;-3.68;100.00;100330.56;6093982;28;20490;-72
2022/12/15 15:47:45;;;;;;;18.20;6.27;;;;;;;-3.78;100.00;100339.63;6095954;28;20294;-73
2022/12/15 15:50:42;;;;;;;19.02;7.50;;;;;;;-3.69;100.00;100334.03;6065395;28;20044;-72
2022/12/15 15:53:37;;;;;;;22.55;7.35;;;;;;;-3.84;100.00;100332.97;6095246;28;20033;-72
2022/12/15 15:56:33;;;;;;;16.75;6.03;;;;;;;-3.98;100.00;100340.47;6095922;28;20033;-71
2022/12/15 15:59:29;;;;;;;17.45;6.45;;;;;;;-4.14;100.00;100342.00;6096025;28;20047;-72
2022/12/15 16:02:25;;;;;;;26.27;9.60;;;;;;;-3.90;100.00;100341.00;6093204;28;20037;-73
2022/12/15 16:05:20;;;;;;;25.40;10.33;;;;;;;-3.63;100.00;100333.78;6095585;28;20045;-70
2022/12/15 16:08:23;;;;;;;23.27;9.77;;;;;;;-3.55;100.00;100338.63;6095451;28;20029;-73
2022/12/15 16:11:20;;;;;;;29.25;11.88;;;;;;;-3.43;100.00;100322.56;6077600;28;20462;-75
2022/12/15 16:14:16;;;;;;;29.38;11.50;;;;;;;-3.34;100.00;100337.72;6095806;28;20029;-74
2022/12/15 16:17:12;;;;;;;25.65;9.82;;;;;;;-3.18;100.00;100346.47;6097683;28;20078;-74